Time;durP1;ratioP1;P1;durP2;ratioP2;P2;SDS_P1;SDS_P2;PMS_P1;PMS_P2;Temp;Humidity;BMP_temperature;BMP_pressure;BME280_temperature;BME280_humidity;BME280_pressure;Samples;Min_cycle;Max_cycle;Signal;HPM_P1;HPM_P2
2021/12/04 00:02:02;;;;;;;5.20;4.63;;;4.60;99.90;;;;;;2611719;47;20561;-70
2021/12/04 00:04:31;;;;;;;5.20;4.70;;;4.80;99.90;;;;;;2613307;39;20753;-69
2021/12/04 00:06:57;;;;;;;4.40;4.00;;;4.60;99.90;;;;;;2613373;54;20396;-70
2021/12/04 00:09:24;;;;;;;6.13;4.90;;;4.70;99.90;;;;;;2612492;54;20491;-69
2021/12/04 00:12:00;;;;;;;5.47;4.97;;;4.80;99.90;;;;;;2613311;54;20407;-70
2021/12/04 00:14:26;;;;;;;4.13;3.83;;;4.80;99.90;;;;;;2612598;54;20407;-70
2021/12/04 00:16:53;;;;;;;2.93;2.73;;;4.90;99.90;;;;;;2611774;54;20392;-71
2021/12/04 00:19:19;;;;;;;4.43;3.93;;;4.80;99.90;;;;;;2612462;54;20927;-70
2021/12/04 00:21:45;;;;;;;5.23;4.50;;;4.80;99.90;;;;;;2614260;54;20474;-70
2021/12/04 00:24:11;;;;;;;4.23;3.87;;;4.80;99.90;;;;;;2613303;39;20800;-70
2021/12/04 00:26:38;;;;;;;4.80;4.37;;;4.80;99.90;;;;;;2613103;54;20396;-71
2021/12/04 00:29:05;;;;;;;5.80;5.30;;;4.80;99.90;;;;;;2612395;54;20383;-71
2021/12/04 00:31:31;;;;;;;6.17;5.33;;;4.80;99.90;;;;;;2613559;54;20553;-70
2021/12/04 00:33:58;;;;;;;4.57;4.17;;;4.80;99.90;;;;;;2612226;54;20416;-70
2021/12/04 00:49:57;;;;;;;4.47;4.10;;;4.80;99.90;;;;;;2614024;54;20396;-69
2021/12/04 00:52:23;;;;;;;4.10;3.80;;;4.80;99.90;;;;;;2613585;54;20965;-69
2021/12/04 00:54:49;;;;;;;6.47;4.67;;;4.70;99.90;;;;;;2612546;54;20489;-70
2021/12/04 00:57:14;;;;;;;3.67;2.90;;;4.60;99.90;;;;;;2613555;54;21065;-70
2021/12/04 00:59:40;;;;;;;4.70;4.30;;;4.60;99.90;;;;;;2613492;54;20145;-73
2021/12/04 01:02:06;;;;;;;4.80;4.40;;;4.70;99.90;;;;;;2611843;54;21197;-71
2021/12/04 01:04:32;;;;;;;4.67;4.27;;;4.60;99.90;;;;;;2613025;52;20171;-70
2021/12/04 01:06:58;;;;;;;4.67;4.27;;;4.70;99.90;;;;;;2612981;54;20391;-70
2021/12/04 01:09:25;;;;;;;3.37;3.07;;;4.70;99.90;;;;;;2611211;54;20992;-72
2021/12/04 01:11:53;;;;;;;5.33;4.80;;;4.60;99.90;;;;;;2613839;54;20184;-71
2021/12/04 01:14:23;;;;;;;5.97;5.10;;;4.60;99.90;;;;;;2612536;54;20418;-71
2021/12/04 01:16:50;;;;;;;5.63;5.10;;;4.60;99.90;;;;;;2611963;54;20412;-71
2021/12/04 01:19:19;;;;;;;5.93;5.27;;;4.70;99.90;;;;;;2613114;54;20460;-70
2021/12/04 01:21:46;;;;;;;4.97;4.40;;;4.70;99.90;;;;;;2612837;54;20387;-71
2021/12/04 01:24:12;;;;;;;5.20;4.70;;;4.70;99.90;;;;;;2611260;54;20400;-69
2021/12/04 01:26:39;;;;;;;5.20;4.77;;;4.80;99.90;;;;;;2613142;54;20448;-69
2021/12/04 01:29:05;;;;;;;7.10;5.20;;;4.80;99.90;;;;;;2612322;54;20415;-70
2021/12/04 01:31:31;;;;;;;5.33;4.83;;;4.80;99.90;;;;;;2613144;54;20977;-69
2021/12/04 01:33:57;;;;;;;9.40;5.10;;;4.70;99.90;;;;;;2613326;54;20479;-69
2021/12/04 01:36:24;;;;;;;5.20;4.70;;;4.90;99.90;;;;;;2613261;54;20510;-70
2021/12/04 01:38:50;;;;;;;5.50;5.00;;;5.00;99.90;;;;;;2612431;47;20151;-70
2021/12/04 01:41:16;;;;;;;5.40;4.90;;;4.90;99.90;;;;;;2611715;54;20989;-69
2021/12/04 01:43:42;;;;;;;6.00;5.40;;;4.80;99.90;;;;;;2612744;54;20408;-70
2021/12/04 01:46:08;;;;;;;5.40;4.60;;;4.90;99.90;;;;;;2613600;54;20371;-70
2021/12/04 01:48:34;;;;;;;5.80;5.20;;;4.90;99.90;;;;;;2612694;39;20781;-69
2021/12/04 01:51:00;;;;;;;10.47;5.80;;;5.00;99.90;;;;;;2612468;54;20403;-70
2021/12/04 01:53:27;;;;;;;5.87;5.27;;;5.10;99.90;;;;;;2611542;54;20433;-70
2021/12/04 01:55:55;;;;;;;8.80;5.50;;;5.20;99.90;;;;;;2613799;54;20501;-69
2021/12/04 01:58:22;;;;;;;6.03;5.53;;;5.20;99.90;;;;;;2611784;47;20431;-70
2021/12/04 02:00:48;;;;;;;6.03;5.40;;;5.30;99.90;;;;;;2613573;54;20414;-69
2021/12/04 02:03:14;;;;;;;6.10;5.50;;;5.20;99.90;;;;;;2612957;54;20383;-70
2021/12/04 02:05:41;;;;;;;7.60;6.70;;;5.20;99.90;;;;;;2614804;39;20778;-70
2021/12/04 02:08:08;;;;;;;6.40;5.57;;;5.10;99.90;;;;;;2612896;54;20420;-70
2021/12/04 02:10:35;;;;;;;6.17;5.57;;;5.20;99.90;;;;;;2613216;54;20531;-70
2021/12/04 02:13:01;;;;;;;8.53;5.40;;;5.10;99.90;;;;;;2612736;39;20933;-69
2021/12/04 02:15:28;;;;;;;6.80;5.83;;;5.30;99.90;;;;;;2612989;39;20899;-70
2021/12/04 02:17:54;;;;;;;5.67;5.17;;;5.40;99.90;;;;;;2613468;54;20407;-70
2021/12/04 02:20:22;;;;;;;5.80;5.20;;;5.30;99.90;;;;;;2614000;31;20916;-70
2021/12/04 02:22:49;;;;;;;5.57;5.03;;;5.30;99.90;;;;;;2613637;54;20940;-68
2021/12/04 02:25:16;;;;;;;5.20;4.80;;;5.20;99.90;;;;;;2613963;54;20397;-70
2021/12/04 02:27:43;;;;;;;8.37;5.07;;;5.30;99.90;;;;;;2611696;54;20407;-70
2021/12/04 02:30:15;;;;;;;7.27;5.77;;;5.50;99.90;;;;;;2613976;54;20392;-70
2021/12/04 02:32:41;;;;;;;6.70;5.83;;;5.40;99.90;;;;;;2612213;54;20428;-70
2021/12/04 02:35:09;;;;;;;6.60;5.90;;;5.40;99.90;;;;;;2614404;54;20391;-70
2021/12/04 02:37:37;;;;;;;5.80;5.20;;;5.30;99.90;;;;;;2612667;54;20139;-69
2021/12/04 02:40:05;;;;;;;6.50;5.90;;;5.40;99.90;;;;;;2614202;54;20407;-69
2021/12/04 02:42:32;;;;;;;6.70;5.97;;;5.60;99.90;;;;;;2611764;54;20418;-70
2021/12/04 02:45:00;;;;;;;7.47;5.20;;;5.60;99.90;;;;;;2613715;54;20422;-69
2021/12/04 02:47:28;;;;;;;5.80;5.30;;;5.70;99.90;;;;;;2614801;39;21421;-70
2021/12/04 02:49:54;;;;;;;6.87;5.70;;;5.40;99.90;;;;;;2612135;54;20402;-69
2021/12/04 02:52:21;;;;;;;6.60;6.00;;;5.10;99.90;;;;;;2613304;54;20475;-70
2021/12/04 02:54:47;;;;;;;5.07;4.57;;;5.10;99.90;;;;;;2613907;54;21133;-70
2021/12/04 02:57:15;;;;;;;6.07;5.47;;;5.30;99.90;;;;;;2610495;54;20440;-70
2021/12/04 02:59:42;;;;;;;6.67;5.70;;;5.30;99.90;;;;;;2613289;39;20652;-71
2021/12/04 03:02:16;;;;;;;7.10;5.63;;;5.20;99.90;;;;;;2613164;39;20504;-69
2021/12/04 03:04:42;;;;;;;5.53;5.03;;;5.30;99.90;;;;;;2613607;47;20402;-69
2021/12/04 03:07:08;;;;;;;4.20;3.83;;;5.20;99.90;;;;;;2613620;54;20427;-70
2021/12/04 03:09:35;;;;;;;7.80;5.93;;;5.20;99.90;;;;;;2613043;47;20419;-70
2021/12/04 03:12:02;;;;;;;6.60;5.80;;;5.30;99.90;;;;;;2610214;47;20789;-70
2021/12/04 03:14:28;;;;;;;6.77;5.27;;;5.30;99.90;;;;;;2613335;54;20533;-69
2021/12/04 03:16:54;;;;;;;10.60;5.80;;;5.20;99.90;;;;;;2612807;54;20434;-69
2021/12/04 03:19:20;;;;;;;5.20;4.70;;;5.30;99.90;;;;;;2612908;54;20644;-69
2021/12/04 03:21:46;;;;;;;7.30;5.67;;;5.30;99.90;;;;;;2613625;54;20139;-70
2021/12/04 03:24:14;;;;;;;6.90;5.80;;;5.30;99.90;;;;;;2612477;54;20181;-71
2021/12/04 03:26:40;;;;;;;6.80;6.07;;;5.40;99.90;;;;;;2613327;54;20508;-72
2021/12/04 03:29:10;;;;;;;7.20;5.97;;;5.40;99.90;;;;;;2613279;54;20355;-70
2021/12/04 03:42:16;;;;;;;7.00;5.50;;;5.30;99.90;;;;;;2613639;39;20818;-69
2021/12/04 03:44:42;;;;;;;5.60;5.20;;;5.30;99.90;;;;;;2611102;47;20391;-69
2021/12/04 03:47:09;;;;;;;7.37;5.67;;;5.40;99.90;;;;;;2613820;54;20407;-70
2021/12/04 03:49:35;;;;;;;6.50;5.90;;;5.60;99.90;;;;;;2614561;39;20800;-70
2021/12/04 03:52:01;;;;;;;6.23;5.30;;;5.90;99.90;;;;;;2612056;54;20415;-69
2021/12/04 03:54:28;;;;;;;6.93;6.33;;;5.90;99.90;;;;;;2613409;39;20806;-69
2021/12/04 03:57:03;;;;;;;9.33;7.30;;;5.70;99.90;;;;;;2614311;54;20400;-68
2021/12/04 03:59:30;;;;;;;5.60;5.10;;;5.70;99.90;;;;;;2613765;54;20418;-71
2021/12/04 04:01:55;;;;;;;6.27;5.30;;;5.80;99.90;;;;;;2613924;54;20533;-70
2021/12/04 04:04:21;;;;;;;5.83;5.30;;;5.70;99.90;;;;;;2612587;54;20396;-69
2021/12/04 04:06:47;;;;;;;5.50;5.00;;;5.70;99.90;;;;;;2614261;54;20189;-71
2021/12/04 04:09:12;;;;;;;6.97;5.73;;;5.80;99.90;;;;;;2611789;54;20255;-68
2021/12/04 04:11:38;;;;;;;4.73;4.20;;;5.80;99.90;;;;;;2612820;54;20155;-69
2021/12/04 04:14:05;;;;;;;5.60;5.10;;;5.80;99.90;;;;;;2613232;54;20715;-69
2021/12/04 04:16:35;;;;;;;6.80;5.40;;;5.90;99.90;;;;;;2612519;54;20709;-71
2021/12/04 04:19:01;;;;;;;6.33;5.73;;;5.90;99.90;;;;;;2613577;54;20986;-69
2021/12/04 04:21:27;;;;;;;6.73;5.70;;;5.70;99.90;;;;;;2613137;54;20415;-70
2021/12/04 04:23:52;;;;;;;7.30;5.67;;;5.80;99.90;;;;;;2612909;54;20200;-69
2021/12/04 04:26:18;;;;;;;5.10;4.60;;;5.90;99.90;;;;;;2612251;46;20155;-69
2021/12/04 04:28:44;;;;;;;4.53;4.13;;;5.90;99.90;;;;;;2612533;47;20168;-69
2021/12/04 04:31:10;;;;;;;5.13;4.50;;;6.00;99.90;;;;;;2613138;54;20218;-71
2021/12/04 04:33:40;;;;;;;5.80;5.37;;;6.00;99.90;;;;;;2612588;54;20235;-71
2021/12/04 04:36:21;;;;;;;6.77;5.20;;;6.10;99.90;;;;;;2613461;54;20988;-70
2021/12/04 04:39:03;;;;;;;6.40;5.73;;;6.00;99.90;;;;;;2613291;54;20388;-70
2021/12/04 05:00:36;;;;;;;5.43;4.73;;;5.70;99.90;;;;;;2613003;54;20433;-70
2021/12/04 05:11:22;;;;;;;5.77;5.27;;;5.80;99.90;;;;;;2613721;39;20828;-70
2021/12/04 05:13:48;;;;;;;6.07;5.00;;;5.80;99.90;;;;;;2612933;54;20407;-70
2021/12/04 05:16:15;;;;;;;5.40;4.60;;;5.70;99.90;;;;;;2612665;39;20831;-70
2021/12/04 05:18:52;;;;;;;4.37;3.97;;;5.70;99.90;;;;;;2612724;54;20402;-70
2021/12/04 05:21:18;;;;;;;6.27;4.70;;;5.70;99.90;;;;;;2611836;54;20415;-70
2021/12/04 05:23:53;;;;;;;5.70;5.10;;;5.50;99.90;;;;;;2612074;54;20408;-69
2021/12/04 05:26:26;;;;;;;4.63;4.23;;;5.60;99.90;;;;;;2613337;54;21000;-70
2021/12/04 05:28:53;;;;;;;5.37;4.87;;;5.70;99.90;;;;;;2612091;39;20772;-70
2021/12/04 05:31:20;;;;;;;5.70;5.20;;;5.70;99.90;;;;;;2612923;54;20440;-69
2021/12/04 05:33:47;;;;;;;4.97;4.23;;;5.70;99.90;;;;;;2612403;54;20415;-69
2021/12/04 05:36:13;;;;;;;5.80;4.73;;;5.70;99.90;;;;;;2613644;54;20946;-70
2021/12/04 05:38:39;;;;;;;5.50;5.10;;;5.90;99.90;;;;;;2612463;54;20407;-69
2021/12/04 05:41:06;;;;;;;8.47;4.93;;;5.60;99.90;;;;;;2612058;54;20523;-69
2021/12/04 05:43:33;;;;;;;7.57;5.50;;;5.60;99.90;;;;;;2611378;47;20411;-69
2021/12/04 05:48:49;;;;;;;6.13;5.57;;;5.80;99.90;;;;;;2612839;54;20510;-69
2021/12/04 05:51:35;;;;;;;4.90;4.50;;;5.70;99.90;;;;;;2610555;54;20427;-69
2021/12/04 05:56:46;;;;;;;5.03;4.50;;;5.70;99.90;;;;;;2611937;39;20778;-71
2021/12/04 05:59:12;;;;;;;6.33;5.10;;;5.80;99.90;;;;;;2612747;54;20400;-70
2021/12/04 06:01:38;;;;;;;6.50;5.40;;;5.70;99.90;;;;;;2612158;54;20446;-69
2021/12/04 06:04:04;;;;;;;6.10;5.50;;;5.90;99.90;;;;;;2612372;47;20173;-69
2021/12/04 06:06:29;;;;;;;6.00;4.90;;;5.80;99.90;;;;;;2612317;54;20155;-70
2021/12/04 06:08:55;;;;;;;7.73;5.77;;;5.80;99.90;;;;;;2611713;39;20782;-70
2021/12/04 06:11:22;;;;;;;5.90;5.37;;;5.90;99.90;;;;;;2611649;47;20756;-70
2021/12/04 06:13:48;;;;;;;6.70;5.60;;;5.90;99.90;;;;;;2610890;54;20151;-69
2021/12/04 06:16:14;;;;;;;6.90;6.20;;;5.90;99.90;;;;;;2613490;39;20753;-69
2021/12/04 06:18:41;;;;;;;9.43;6.30;;;5.70;99.90;;;;;;2611981;54;20430;-70
2021/12/04 06:23:52;;;;;;;6.40;5.80;;;5.70;99.90;;;;;;2611915;54;20417;-71
2021/12/04 06:26:18;;;;;;;7.60;6.33;;;5.80;99.90;;;;;;2613332;54;20956;-69
2021/12/04 06:28:44;;;;;;;6.13;5.50;;;5.80;99.90;;;;;;2611994;54;20400;-70
2021/12/04 06:31:10;;;;;;;5.80;5.20;;;5.70;99.90;;;;;;2612395;54;20155;-70
2021/12/04 06:33:37;;;;;;;7.93;5.63;;;5.80;99.90;;;;;;2612603;54;20149;-69
2021/12/04 06:36:03;;;;;;;8.30;5.43;;;5.80;99.90;;;;;;2613885;54;20441;-69
2021/12/04 06:38:29;;;;;;;6.33;5.50;;;5.80;99.90;;;;;;2610643;54;20430;-72
2021/12/04 06:40:55;;;;;;;3.93;3.57;;;5.80;99.90;;;;;;2613001;52;20983;-69
2021/12/04 06:43:22;;;;;;;7.43;5.70;;;5.70;99.90;;;;;;2613340;39;20572;-69
2021/12/04 06:45:57;;;;;;;8.60;6.00;;;5.70;99.90;;;;;;2614622;54;20996;-70
2021/12/04 06:48:26;;;;;;;5.23;4.70;;;5.60;99.90;;;;;;2612534;39;20919;-69
2021/12/04 06:50:59;;;;;;;5.90;5.30;;;5.70;99.90;;;;;;2613954;54;20431;-70
2021/12/04 06:53:32;;;;;;;9.47;5.67;;;5.90;99.90;;;;;;2613672;54;20423;-71
2021/12/04 06:56:01;;;;;;;6.40;5.63;;;6.00;99.90;;;;;;2613955;46;20419;-70
2021/12/04 06:58:28;;;;;;;5.77;5.20;;;6.00;99.90;;;;;;2613597;54;20416;-70
2021/12/04 07:00:54;;;;;;;6.30;5.43;;;6.00;99.90;;;;;;2613096;54;20419;-70
2021/12/04 07:03:21;;;;;;;8.70;5.33;;;5.80;99.90;;;;;;2613066;46;20509;-71
2021/12/04 07:05:47;;;;;;;6.43;5.57;;;5.80;99.90;;;;;;2613986;54;20420;-71
2021/12/04 07:08:14;;;;;;;6.17;4.90;;;5.70;99.90;;;;;;2613169;54;20424;-70
2021/12/04 07:10:40;;;;;;;7.33;5.90;;;5.70;99.90;;;;;;2612652;54;20398;-68
2021/12/04 07:13:07;;;;;;;5.43;4.40;;;5.80;99.90;;;;;;2613973;54;20407;-71
2021/12/04 07:15:33;;;;;;;5.73;5.20;;;5.90;99.90;;;;;;2611556;54;20418;-70
2021/12/04 07:18:00;;;;;;;6.60;6.00;;;5.90;99.90;;;;;;2612250;54;20391;-71
2021/12/04 07:20:27;;;;;;;5.80;5.20;;;5.90;99.90;;;;;;2612461;54;20388;-70
2021/12/04 07:22:53;;;;;;;5.40;4.90;;;6.00;99.90;;;;;;2612255;54;20934;-70
2021/12/04 07:25:19;;;;;;;7.70;5.57;;;6.10;99.90;;;;;;2612833;54;20434;-69
2021/12/04 07:27:46;;;;;;;6.50;5.17;;;5.80;99.90;;;;;;2611584;54;20437;-69
2021/12/04 07:30:12;;;;;;;5.77;5.27;;;5.80;99.90;;;;;;2610330;54;20585;-70
2021/12/04 07:32:38;;;;;;;6.83;5.63;;;5.80;99.90;;;;;;2612143;39;20823;-71
2021/12/04 07:35:06;;;;;;;6.80;6.10;;;5.70;99.90;;;;;;2611697;39;20803;-70
2021/12/04 07:37:32;;;;;;;4.83;4.40;;;5.70;99.90;;;;;;2613230;54;20965;-71
2021/12/04 07:39:57;;;;;;;7.43;5.53;;;5.80;99.90;;;;;;2611562;54;20427;-69
2021/12/04 07:42:23;;;;;;;6.33;5.73;;;5.60;99.90;;;;;;2613713;54;20395;-69
2021/12/04 07:44:50;;;;;;;5.83;5.30;;;5.70;99.90;;;;;;2611882;39;20602;-70
2021/12/04 07:47:15;;;;;;;8.60;5.83;;;5.80;99.90;;;;;;2611814;54;20150;-70
2021/12/04 07:49:42;;;;;;;7.43;5.77;;;5.90;99.90;;;;;;2611584;54;20925;-69
2021/12/04 07:52:09;;;;;;;8.23;5.37;;;5.80;99.90;;;;;;2613349;54;20937;-69
2021/12/04 07:54:35;;;;;;;5.80;5.20;;;5.80;99.90;;;;;;2614085;54;20386;-70
2021/12/04 07:57:01;;;;;;;6.33;5.83;;;5.90;99.90;;;;;;2613824;54;20553;-71
2021/12/04 07:59:28;;;;;;;5.43;4.93;;;5.90;99.90;;;;;;2612986;54;20387;-70
2021/12/04 08:01:55;;;;;;;7.37;5.70;;;5.90;99.90;;;;;;2613060;54;20440;-69
2021/12/04 08:04:23;;;;;;;5.47;4.97;;;5.90;99.90;;;;;;2612365;54;20491;-71
2021/12/04 08:06:49;;;;;;;6.30;5.70;;;6.00;99.90;;;;;;2612726;54;20409;-72
2021/12/04 08:09:15;;;;;;;6.90;5.70;;;5.90;99.90;;;;;;2611407;54;20396;-72
2021/12/04 08:11:41;;;;;;;8.70;5.90;;;6.00;99.90;;;;;;2613136;54;20411;-71
2021/12/04 08:14:06;;;;;;;7.80;5.93;;;6.00;99.90;;;;;;2611639;54;20173;-72
2021/12/04 08:16:33;;;;;;;7.90;6.83;;;6.10;99.90;;;;;;2612769;54;20151;-71
2021/12/04 08:18:59;;;;;;;7.60;6.20;;;6.10;99.90;;;;;;2613222;39;20622;-71
2021/12/04 08:21:25;;;;;;;7.80;6.43;;;6.20;99.90;;;;;;2610280;54;20991;-72
2021/12/04 08:23:51;;;;;;;8.47;7.30;;;6.10;99.90;;;;;;2613500;54;20395;-71
2021/12/04 08:26:17;;;;;;;7.80;7.00;;;6.20;99.90;;;;;;2614293;47;20174;-72
2021/12/04 08:28:43;;;;;;;6.73;6.07;;;6.10;99.90;;;;;;2613241;54;20444;-71
2021/12/04 08:31:10;;;;;;;7.07;6.37;;;6.00;99.90;;;;;;2613693;54;20438;-71
2021/12/04 08:33:36;;;;;;;7.23;6.40;;;6.20;99.90;;;;;;2613196;54;20458;-71
2021/12/04 08:36:04;;;;;;;9.43;7.10;;;6.40;99.90;;;;;;2613042;54;20420;-73
2021/12/04 08:38:31;;;;;;;7.20;6.40;;;6.40;99.90;;;;;;2613664;39;20767;-72
2021/12/04 08:40:57;;;;;;;6.63;5.93;;;6.20;99.90;;;;;;2613683;46;20426;-70
2021/12/04 08:43:22;;;;;;;8.67;7.13;;;6.10;99.90;;;;;;2613870;47;20423;-73
2021/12/04 08:45:49;;;;;;;8.53;6.43;;;6.00;99.90;;;;;;2611799;54;20396;-72
2021/12/04 08:48:15;;;;;;;7.07;6.37;;;5.90;99.90;;;;;;2613886;47;20171;-71
2021/12/04 08:50:41;;;;;;;9.40;8.27;;;5.90;99.90;;;;;;2613303;54;21222;-72
2021/12/04 08:53:08;;;;;;;7.43;5.77;;;5.70;99.90;;;;;;2613605;47;20162;-70
2021/12/04 08:55:36;;;;;;;6.47;5.40;;;5.70;99.90;;;;;;2612809;54;20403;-70
2021/12/04 08:58:03;;;;;;;7.33;5.90;;;5.80;99.90;;;;;;2614189;54;20487;-70
2021/12/04 09:00:46;;;;;;;10.53;7.40;;;5.70;99.90;;;;;;2611355;54;20391;-70
2021/12/04 09:03:12;;;;;;;6.90;5.87;;;5.70;99.90;;;;;;2612584;54;20470;-70
2021/12/04 09:05:38;;;;;;;9.03;7.60;;;5.80;99.90;;;;;;2613377;54;20408;-72
2021/12/04 09:08:07;;;;;;;11.03;7.40;;;6.00;99.90;;;;;;2612876;54;20151;-71
2021/12/04 09:10:32;;;;;;;11.97;7.87;;;6.30;99.90;;;;;;2613500;31;20903;-71
2021/12/04 09:12:58;;;;;;;11.53;7.10;;;6.10;99.90;;;;;;2612871;54;20411;-72
2021/12/04 09:15:31;;;;;;;10.03;7.43;;;6.10;99.90;;;;;;2614242;54;20179;-69
2021/12/04 09:17:58;;;;;;;9.57;8.07;;;6.10;99.90;;;;;;2612898;47;20163;-71
2021/12/04 09:20:27;;;;;;;8.03;7.10;;;6.10;99.90;;;;;;2612849;54;20415;-71
2021/12/04 09:22:54;;;;;;;9.83;7.63;;;6.20;99.90;;;;;;2612043;54;20399;-72
2021/12/04 09:25:25;;;;;;;8.63;7.03;;;6.30;99.90;;;;;;2612982;54;20971;-71
2021/12/04 10:17:28;;;;;;;7.50;6.40;;;7.60;99.90;;;;;;2611778;39;20838;-71
2021/12/04 10:33:25;;;;;;;7.10;5.83;;;7.30;99.90;;;;;;2610868;54;21373;-72
2021/12/04 10:35:53;;;;;;;9.80;6.13;;;7.50;99.90;;;;;;2612896;54;20418;-71
2021/12/04 10:38:25;;;;;;;13.70;6.63;;;7.40;99.90;;;;;;2609209;54;20395;-72
2021/12/04 10:40:53;;;;;;;5.50;5.00;;;7.70;99.90;;;;;;2609338;54;20485;-71
2021/12/04 10:43:27;;;;;;;5.87;5.37;;;7.40;99.90;;;;;;2608922;54;20983;-71
2021/12/04 10:45:58;;;;;;;7.10;6.50;;;7.70;99.90;;;;;;2612452;54;20980;-71
2021/12/04 10:48:30;;;;;;;6.23;5.63;;;7.70;99.90;;;;;;2611914;54;21383;-71
2021/12/04 10:51:20;;;;;;;9.77;5.73;;;7.70;99.90;;;;;;2611928;54;20403;-72
2021/12/04 10:53:50;;;;;;;6.60;6.00;;;7.60;99.90;;;;;;2611864;54;20439;-73
2021/12/04 10:59:40;;;;;;;6.30;5.70;;;7.50;99.90;;;;;;2611109;54;20427;-73
2021/12/04 11:02:22;;;;;;;7.73;5.93;;;7.80;99.90;;;;;;2611323;54;20439;-72
2021/12/04 11:04:53;;;;;;;6.50;5.90;;;7.40;99.90;;;;;;2611993;54;20408;-72
2021/12/04 11:40:49;;;;;;;4.43;4.03;;;7.00;99.90;;;;;;2610741;47;20679;-72
2021/12/04 11:43:21;;;;;;;5.63;5.10;;;6.80;99.90;;;;;;2610951;39;20851;-72
2021/12/04 11:48:42;;;;;;;8.00;6.53;;;7.00;99.90;;;;;;2611525;54;20391;-73
2021/12/04 11:51:24;;;;;;;3.80;3.40;;;7.10;99.90;;;;;;2609022;39;20990;-72
2021/12/04 11:53:52;;;;;;;19.07;10.60;;;7.10;99.90;;;;;;2609942;54;20965;-72
2021/12/04 11:56:25;;;;;;;4.60;4.20;;;7.00;99.90;;;;;;2608018;54;21041;-72
2021/12/04 11:58:52;;;;;;;5.53;4.60;;;7.00;99.90;;;;;;2609512;54;20457;-72
2021/12/04 12:01:27;;;;;;;14.03;10.80;;;7.20;99.90;;;;;;2609935;46;20911;-72
2021/12/04 12:03:55;;;;;;;7.13;6.40;;;7.40;99.90;;;;;;2610674;54;20535;-72
2021/12/04 12:06:32;;;;;;;5.10;4.50;;;7.30;99.90;;;;;;2610799;39;20846;-72
2021/12/04 12:09:15;;;;;;;8.60;6.80;;;7.30;99.90;;;;;;2608904;54;21031;-72
2021/12/04 12:11:52;;;;;;;4.70;4.30;;;7.20;99.90;;;;;;2609642;47;20450;-74
2021/12/04 12:14:22;;;;;;;6.17;5.57;;;7.00;99.90;;;;;;2610902;46;20549;-72
2021/12/04 12:16:52;;;;;;;5.40;4.90;;;7.30;99.90;;;;;;2608783;39;21068;-72
2021/12/04 12:19:43;;;;;;;5.37;4.87;;;7.60;99.90;;;;;;2608478;54;20438;-73
2021/12/04 12:22:29;;;;;;;5.43;5.03;;;7.30;99.90;;;;;;2609284;47;20944;-72
2021/12/04 12:25:06;;;;;;;7.10;5.97;;;7.20;99.90;;;;;;2610139;54;20435;-73
2021/12/04 12:36:03;;;;;;;5.00;4.60;;;7.00;99.90;;;;;;2610866;46;20448;-71
2021/12/04 12:38:32;;;;;;;5.27;4.73;;;7.30;99.90;;;;;;2610148;54;20412;-71
2021/12/04 12:41:31;;;;;;;5.00;4.50;;;7.20;99.90;;;;;;2611159;46;20461;-71
2021/12/04 12:44:18;;;;;;;4.97;4.57;;;7.40;99.90;;;;;;2608634;54;20978;-71
2021/12/04 12:46:50;;;;;;;5.10;4.60;;;7.50;99.90;;;;;;2610774;54;20547;-73
2021/12/04 12:49:26;;;;;;;4.50;4.10;;;7.80;99.90;;;;;;2608589;54;21107;-73
2021/12/04 12:52:00;;;;;;;4.40;4.00;;;7.60;99.90;;;;;;2607920;31;21205;-73
2021/12/04 12:54:34;;;;;;;5.27;4.80;;;7.90;99.90;;;;;;2610903;54;20427;-72
2021/12/04 12:57:08;;;;;;;4.70;4.30;;;8.10;99.90;;;;;;2609395;39;20903;-73
2021/12/04 12:59:58;;;;;;;5.17;4.70;;;8.10;99.90;;;;;;2610018;54;20998;-72
2021/12/04 13:14:15;;;;;;;4.13;3.83;;;8.00;99.90;;;;;;2608135;46;20427;-72
2021/12/04 13:16:51;;;;;;;5.40;4.33;;;8.70;99.90;;;;;;2609724;54;20444;-72
2021/12/04 13:19:20;;;;;;;4.07;3.77;;;8.90;99.90;;;;;;2608381;54;20407;-71
2021/12/04 13:21:49;;;;;;;4.33;3.93;;;8.90;99.90;;;;;;2609088;54;20412;-73
2021/12/04 13:24:17;;;;;;;5.40;3.90;;;8.40;99.90;;;;;;2611991;54;20489;-73
2021/12/04 13:26:46;;;;;;;4.73;4.23;;;8.10;99.90;;;;;;2611770;54;20404;-72
2021/12/04 13:29:15;;;;;;;4.47;4.10;;;8.20;99.90;;;;;;2608862;54;20419;-73
2021/12/04 13:31:41;;;;;;;6.10;3.80;;;8.50;99.90;;;;;;2608978;54;20418;-72
2021/12/04 13:34:09;;;;;;;5.57;4.97;;;8.40;99.90;;;;;;2610053;54;21102;-76
2021/12/04 13:36:36;;;;;;;4.67;4.27;;;8.20;99.90;;;;;;2612114;39;20872;-76
2021/12/04 13:39:07;;;;;;;5.53;5.03;;;8.20;99.90;;;;;;2610233;54;20422;-75
2021/12/04 13:41:34;;;;;;;12.83;10.80;;;8.00;99.90;;;;;;2610253;54;20419;-75
2021/12/04 13:44:03;;;;;;;9.53;8.40;;;8.10;99.90;;;;;;2610219;54;20840;-73
2021/12/04 13:47:01;;;;;;;10.23;9.23;;;7.90;99.90;;;;;;2610201;47;20420;-75
2021/12/04 13:49:37;;;;;;;10.07;7.37;;;7.40;99.90;;;;;;2611283;54;20527;-74
2021/12/04 13:52:10;;;;;;;13.80;11.97;;;6.90;99.90;;;;;;2662644;36;20464;-74
2021/12/04 13:54:40;;;;;;;17.50;14.37;;;6.70;99.90;;;;;;2611976;54;20450;-78
2021/12/04 13:57:12;;;;;;;11.83;9.33;;;6.60;99.90;;;;;;2612033;47;20430;-77
2021/12/04 13:59:39;;;;;;;7.23;6.53;;;6.70;99.90;;;;;;2611828;54;20423;-76
2021/12/04 14:02:05;;;;;;;6.53;5.50;;;6.60;99.90;;;;;;2611234;54;20467;-77
2021/12/04 14:04:33;;;;;;;7.53;6.77;;;6.70;99.90;;;;;;2609717;47;20503;-74
2021/12/04 14:07:01;;;;;;;6.17;5.57;;;7.00;99.90;;;;;;2611771;54;20436;-75
2021/12/04 14:09:34;;;;;;;6.63;5.83;;;7.20;99.90;;;;;;2613394;31;20881;-78
2021/12/04 14:12:01;;;;;;;6.53;5.90;;;7.20;99.90;;;;;;2612017;51;20859;-77
2021/12/04 14:14:30;;;;;;;6.00;5.20;;;7.40;99.90;;;;;;2613688;54;20416;-76
2021/12/04 14:17:04;;;;;;;6.13;5.60;;;7.60;99.90;;;;;;2613283;47;20441;-80
2021/12/04 14:19:30;;;;;;;6.87;6.27;;;7.10;99.90;;;;;;2612512;54;20395;-75
2021/12/04 14:22:01;;;;;;;7.27;6.67;;;7.60;99.90;;;;;;2612941;54;20472;-78
2021/12/04 14:25:02;;;;;;;8.37;7.53;;;8.20;99.90;;;;;;2612882;39;21130;-76
2021/12/04 14:27:35;;;;;;;9.37;7.27;;;8.60;99.90;;;;;;2612703;47;20554;-75
2021/12/04 14:30:09;;;;;;;7.63;6.67;;;8.90;99.90;;;;;;2613072;47;20944;-76
2021/12/04 14:32:42;;;;;;;8.20;7.40;;;8.70;99.90;;;;;;2613977;54;20459;-77
2021/12/04 14:35:15;;;;;;;22.50;14.70;;;8.00;99.90;;;;;;2613595;54;20559;-76
2021/12/04 14:37:52;;;;;;;15.20;11.63;;;7.60;99.90;;;;;;2611851;47;20399;-78
2021/12/04 14:40:21;;;;;;;12.23;9.93;;;7.30;99.90;;;;;;2611979;54;20533;-75
2021/12/04 14:42:50;;;;;;;10.63;7.87;;;7.30;99.90;;;;;;2611456;54;20415;-77
2021/12/04 14:45:21;;;;;;;8.30;7.50;;;7.50;99.90;;;;;;2611796;47;20531;-78
2021/12/04 14:47:53;;;;;;;15.17;13.53;;;7.70;99.90;;;;;;2629163;36;21113;-76
2021/12/04 14:50:27;;;;;;;13.43;12.03;;;6.90;99.90;;;;;;2612108;47;20456;-75
2021/12/04 14:52:56;;;;;;;10.10;8.87;;;6.60;99.90;;;;;;2610970;39;21001;-76
2021/12/04 14:55:38;;;;;;;9.37;8.47;;;6.50;99.90;;;;;;2610725;39;20967;-75
2021/12/04 14:58:13;;;;;;;8.67;7.33;;;6.40;99.90;;;;;;2612880;39;20781;-75
2021/12/04 15:00:48;;;;;;;7.77;6.97;;;6.30;99.90;;;;;;2611126;47;20416;-76
2021/12/04 15:03:27;;;;;;;8.03;7.23;;;6.10;99.90;;;;;;2612494;39;20825;-75
2021/12/04 15:05:57;;;;;;;7.20;6.47;;;6.10;99.90;;;;;;2613222;54;20379;-77
2021/12/04 15:08:30;;;;;;;9.80;8.17;;;6.20;99.90;;;;;;2613488;47;20412;-78
2021/12/04 15:11:06;;;;;;;7.40;6.70;;;6.00;99.90;;;;;;2611911;39;20824;-76
2021/12/04 15:13:35;;;;;;;10.27;8.03;;;5.70;99.90;;;;;;2612245;47;21082;-75
2021/12/04 15:16:05;;;;;;;9.77;8.77;;;5.70;99.90;;;;;;2608938;54;20404;-74
2021/12/04 15:18:39;;;;;;;11.50;8.77;;;5.80;99.90;;;;;;2611113;54;20415;-76
2021/12/04 15:21:11;;;;;;;12.30;9.90;;;5.80;99.90;;;;;;2614366;54;20416;-76
2021/12/04 15:23:39;;;;;;;8.80;7.70;;;5.70;99.90;;;;;;2611487;51;20412;-76
2021/12/04 15:26:19;;;;;;;9.87;8.87;;;5.70;99.90;;;;;;2613226;39;20724;-75
2021/12/04 15:28:49;;;;;;;11.63;9.30;;;5.70;99.90;;;;;;2612865;54;20434;-77
2021/12/04 15:31:17;;;;;;;10.17;8.20;;;5.80;99.90;;;;;;2614122;54;20426;-75
2021/12/04 15:33:46;;;;;;;10.13;9.00;;;5.80;99.90;;;;;;2613958;54;20416;-75
2021/12/04 15:36:42;;;;;;;12.37;9.33;;;5.70;99.90;;;;;;2614130;47;20987;-76
2021/12/04 15:39:17;;;;;;;12.43;10.50;;;5.80;99.90;;;;;;2614206;47;20407;-77
2021/12/04 15:47:22;;;;;;;8.50;7.60;;;6.00;99.90;;;;;;2612433;54;20454;-75
2021/12/04 15:55:07;;;;;;;6.90;6.10;;;5.90;99.90;;;;;;2613447;47;20435;-75
2021/12/04 15:57:34;;;;;;;9.73;6.40;;;6.10;99.90;;;;;;2613917;47;20407;-77
2021/12/04 16:00:09;;;;;;;8.40;7.37;;;6.10;99.90;;;;;;2613578;54;20423;-77
2021/12/04 16:02:44;;;;;;;12.77;10.20;;;6.10;99.90;;;;;;2614962;54;20451;-75
2021/12/04 16:05:18;;;;;;;8.77;7.37;;;5.70;99.90;;;;;;2614420;54;21007;-76
2021/12/04 16:07:48;;;;;;;7.37;5.63;;;5.60;99.90;;;;;;2614719;54;20419;-76
2021/12/04 16:10:17;;;;;;;12.87;10.90;;;5.60;99.90;;;;;;2616013;54;20446;-75
2021/12/04 16:12:52;;;;;;;11.00;7.10;;;5.60;99.90;;;;;;2614785;47;20408;-76
2021/12/04 16:15:22;;;;;;;17.40;6.93;;;5.50;99.90;;;;;;2614495;54;20394;-76
2021/12/04 16:17:48;;;;;;;8.37;7.30;;;5.60;99.90;;;;;;2613976;54;20491;-76
2021/12/04 16:20:18;;;;;;;6.77;6.10;;;5.60;99.90;;;;;;2615120;47;20479;-77